sensor_id;sensor_type;location;lat;lon;timestamp;P1;durP1;ratioP1;P2;durP2;ratioP2
74503;SDS011;62988;55.776;37.544;2023-06-14T00:00:30;10.20;;;3.40;;
74503;SDS011;62988;55.776;37.544;2023-06-14T00:02:56;7.97;;;3.20;;
74503;SDS011;62988;55.776;37.544;2023-06-14T00:05:22;5.45;;;3.20;;
74503;SDS011;62988;55.776;37.544;2023-06-14T00:07:48;10.05;;;3.08;;
74503;SDS011;62988;55.776;37.544;2023-06-14T00:10:14;8.00;;;3.47;;
74503;SDS011;62988;55.776;37.544;2023-06-14T00:12:39;7.80;;;3.07;;
74503;SDS011;62988;55.776;37.544;2023-06-14T00:15:05;8.88;;;3.53;;
74503;SDS011;62988;55.776;37.544;2023-06-14T00:17:31;10.82;;;3.85;;
74503;SDS011;62988;55.776;37.544;2023-06-14T00:19:59;10.75;;;3.55;;
74503;SDS011;62988;55.776;37.544;2023-06-14T00:22:25;11.13;;;3.63;;
74503;SDS011;62988;55.776;37.544;2023-06-14T00:24:51;6.65;;;3.20;;
74503;SDS011;62988;55.776;37.544;2023-06-14T00:27:16;7.20;;;3.13;;
74503;SDS011;62988;55.776;37.544;2023-06-14T00:29:41;8.35;;;3.20;;
74503;SDS011;62988;55.776;37.544;2023-06-14T00:32:07;11.37;;;3.77;;
74503;SDS011;62988;55.776;37.544;2023-06-14T00:34:32;9.73;;;3.45;;
74503;SDS011;62988;55.776;37.544;2023-06-14T00:36:58;7.77;;;3.47;;
74503;SDS011;62988;55.776;37.544;2023-06-14T00:39:23;10.82;;;2.97;;
74503;SDS011;62988;55.776;37.544;2023-06-14T00:41:48;8.57;;;3.70;;
74503;SDS011;62988;55.776;37.544;2023-06-14T00:44:14;6.20;;;2.70;;
74503;SDS011;62988;55.776;37.544;2023-06-14T00:46:41;13.52;;;3.63;;
74503;SDS011;62988;55.776;37.544;2023-06-14T00:49:06;10.00;;;3.53;;
74503;SDS011;62988;55.776;37.544;2023-06-14T00:51:32;10.97;;;3.30;;
74503;SDS011;62988;55.776;37.544;2023-06-14T00:53:57;12.07;;;3.23;;
74503;SDS011;62988;55.776;37.544;2023-06-14T00:56:22;7.73;;;3.47;;
74503;SDS011;62988;55.776;37.544;2023-06-14T00:58:48;7.55;;;3.22;;
74503;SDS011;62988;55.776;37.544;2023-06-14T01:01:13;8.75;;;3.35;;
74503;SDS011;62988;55.776;37.544;2023-06-14T01:03:39;17.92;;;3.05;;
74503;SDS011;62988;55.776;37.544;2023-06-14T01:06:28;5.10;;;2.88;;
74503;SDS011;62988;55.776;37.544;2023-06-14T01:11:22;10.17;;;4.23;;
74503;SDS011;62988;55.776;37.544;2023-06-14T01:13:50;8.95;;;3.17;;
74503;SDS011;62988;55.776;37.544;2023-06-14T01:16:17;8.32;;;3.20;;
74503;SDS011;62988;55.776;37.544;2023-06-14T01:18:42;8.73;;;3.50;;
74503;SDS011;62988;55.776;37.544;2023-06-14T01:21:22;9.63;;;3.25;;
74503;SDS011;62988;55.776;37.544;2023-06-14T01:23:48;7.70;;;3.50;;
74503;SDS011;62988;55.776;37.544;2023-06-14T01:26:18;8.80;;;3.17;;
74503;SDS011;62988;55.776;37.544;2023-06-14T01:28:43;12.60;;;3.83;;
74503;SDS011;62988;55.776;37.544;2023-06-14T01:31:16;9.52;;;3.63;;
74503;SDS011;62988;55.776;37.544;2023-06-14T01:33:42;9.00;;;3.33;;
74503;SDS011;62988;55.776;37.544;2023-06-14T01:36:08;7.85;;;3.70;;
74503;SDS011;62988;55.776;37.544;2023-06-14T01:38:34;9.00;;;3.10;;
74503;SDS011;62988;55.776;37.544;2023-06-14T01:40:59;11.82;;;3.80;;
74503;SDS011;62988;55.776;37.544;2023-06-14T01:43:26;8.50;;;3.72;;
74503;SDS011;62988;55.776;37.544;2023-06-14T01:45:54;8.75;;;3.90;;
74503;SDS011;62988;55.776;37.544;2023-06-14T01:48:19;8.27;;;3.72;;
74503;SDS011;62988;55.776;37.544;2023-06-14T01:50:45;10.50;;;3.50;;
74503;SDS011;62988;55.776;37.544;2023-06-14T01:53:10;7.73;;;3.30;;
74503;SDS011;62988;55.776;37.544;2023-06-14T01:55:35;9.68;;;3.60;;
74503;SDS011;62988;55.776;37.544;2023-06-14T01:58:03;11.30;;;3.47;;
74503;SDS011;62988;55.776;37.544;2023-06-14T02:00:28;10.23;;;3.90;;
74503;SDS011;62988;55.776;37.544;2023-06-14T02:02:53;14.13;;;3.72;;
74503;SDS011;62988;55.776;37.544;2023-06-14T02:05:19;13.40;;;3.83;;
74503;SDS011;62988;55.776;37.544;2023-06-14T02:07:45;7.03;;;3.75;;
74503;SDS011;62988;55.776;37.544;2023-06-14T02:10:11;12.00;;;4.05;;
74503;SDS011;62988;55.776;37.544;2023-06-14T02:12:36;7.93;;;3.85;;
74503;SDS011;62988;55.776;37.544;2023-06-14T02:15:02;7.77;;;3.63;;
74503;SDS011;62988;55.776;37.544;2023-06-14T02:17:28;12.30;;;3.97;;
74503;SDS011;62988;55.776;37.544;2023-06-14T02:19:54;9.40;;;3.65;;
74503;SDS011;62988;55.776;37.544;2023-06-14T02:22:20;7.00;;;3.83;;
74503;SDS011;62988;55.776;37.544;2023-06-14T02:24:47;7.88;;;3.72;;
74503;SDS011;62988;55.776;37.544;2023-06-14T02:27:12;13.45;;;4.35;;
74503;SDS011;62988;55.776;37.544;2023-06-14T02:29:37;9.23;;;3.72;;
74503;SDS011;62988;55.776;37.544;2023-06-14T02:32:04;10.60;;;4.03;;
74503;SDS011;62988;55.776;37.544;2023-06-14T02:34:29;8.65;;;4.10;;
74503;SDS011;62988;55.776;37.544;2023-06-14T02:36:54;8.60;;;4.37;;
74503;SDS011;62988;55.776;37.544;2023-06-14T02:39:20;12.82;;;4.40;;
74503;SDS011;62988;55.776;37.544;2023-06-14T02:41:46;10.57;;;4.10;;
74503;SDS011;62988;55.776;37.544;2023-06-14T02:44:13;12.18;;;3.78;;
74503;SDS011;62988;55.776;37.544;2023-06-14T02:46:38;8.82;;;3.55;;
74503;SDS011;62988;55.776;37.544;2023-06-14T02:49:03;8.13;;;3.80;;
74503;SDS011;62988;55.776;37.544;2023-06-14T02:51:29;13.00;;;4.57;;
74503;SDS011;62988;55.776;37.544;2023-06-14T02:53:54;10.00;;;4.23;;
74503;SDS011;62988;55.776;37.544;2023-06-14T02:56:20;11.93;;;4.70;;
74503;SDS011;62988;55.776;37.544;2023-06-14T02:58:47;12.98;;;5.05;;
74503;SDS011;62988;55.776;37.544;2023-06-14T03:01:13;10.90;;;5.07;;
74503;SDS011;62988;55.776;37.544;2023-06-14T03:03:39;12.90;;;5.68;;
74503;SDS011;62988;55.776;37.544;2023-06-14T03:06:04;9.87;;;4.50;;
74503;SDS011;62988;55.776;37.544;2023-06-14T03:08:30;10.00;;;4.63;;
74503;SDS011;62988;55.776;37.544;2023-06-14T03:10:56;15.23;;;5.05;;
74503;SDS011;62988;55.776;37.544;2023-06-14T03:13:22;12.13;;;4.70;;
74503;SDS011;62988;55.776;37.544;2023-06-14T03:15:48;13.02;;;4.88;;
74503;SDS011;62988;55.776;37.544;2023-06-14T03:18:16;11.07;;;4.82;;
74503;SDS011;62988;55.776;37.544;2023-06-14T03:20:41;15.10;;;5.00;;
74503;SDS011;62988;55.776;37.544;2023-06-14T03:23:08;12.63;;;4.88;;
74503;SDS011;62988;55.776;37.544;2023-06-14T03:25:33;10.77;;;4.93;;
74503;SDS011;62988;55.776;37.544;2023-06-14T03:28:00;13.40;;;5.38;;
74503;SDS011;62988;55.776;37.544;2023-06-14T03:30:26;13.48;;;4.60;;
74503;SDS011;62988;55.776;37.544;2023-06-14T03:32:51;15.17;;;6.00;;
74503;SDS011;62988;55.776;37.544;2023-06-14T03:35:20;15.90;;;6.18;;
74503;SDS011;62988;55.776;37.544;2023-06-14T03:37:46;13.50;;;5.57;;
74503;SDS011;62988;55.776;37.544;2023-06-14T03:40:12;16.98;;;5.55;;
74503;SDS011;62988;55.776;37.544;2023-06-14T03:42:37;14.40;;;6.63;;
74503;SDS011;62988;55.776;37.544;2023-06-14T03:45:03;20.65;;;6.28;;
74503;SDS011;62988;55.776;37.544;2023-06-14T03:47:28;20.35;;;6.47;;
74503;SDS011;62988;55.776;37.544;2023-06-14T03:49:54;15.50;;;6.40;;
74503;SDS011;62988;55.776;37.544;2023-06-14T03:52:19;15.98;;;5.78;;
74503;SDS011;62988;55.776;37.544;2023-06-14T03:54:44;15.53;;;5.80;;
74503;SDS011;62988;55.776;37.544;2023-06-14T03:57:11;13.73;;;5.47;;
74503;SDS011;62988;55.776;37.544;2023-06-14T03:59:36;14.10;;;5.63;;
74503;SDS011;62988;55.776;37.544;2023-06-14T04:02:02;15.73;;;5.13;;
74503;SDS011;62988;55.776;37.544;2023-06-14T04:04:27;26.17;;;5.75;;
74503;SDS011;62988;55.776;37.544;2023-06-14T04:06:54;11.27;;;5.03;;
74503;SDS011;62988;55.776;37.544;2023-06-14T04:09:20;14.15;;;5.00;;
74503;SDS011;62988;55.776;37.544;2023-06-14T04:11:45;16.42;;;4.72;;
74503;SDS011;62988;55.776;37.544;2023-06-14T04:14:11;16.50;;;4.60;;
74503;SDS011;62988;55.776;37.544;2023-06-14T04:16:36;9.87;;;4.07;;
74503;SDS011;62988;55.776;37.544;2023-06-14T04:19:02;11.13;;;4.57;;
74503;SDS011;62988;55.776;37.544;2023-06-14T04:21:27;9.98;;;4.53;;
74503;SDS011;62988;55.776;37.544;2023-06-14T04:23:53;11.98;;;4.57;;
74503;SDS011;62988;55.776;37.544;2023-06-14T04:26:20;12.82;;;4.50;;
74503;SDS011;62988;55.776;37.544;2023-06-14T04:28:46;11.45;;;5.05;;
74503;SDS011;62988;55.776;37.544;2023-06-14T04:31:12;10.82;;;5.20;;
74503;SDS011;62988;55.776;37.544;2023-06-14T04:33:37;8.82;;;4.35;;
74503;SDS011;62988;55.776;37.544;2023-06-14T04:36:10;9.75;;;4.07;;
74503;SDS011;62988;55.776;37.544;2023-06-14T04:38:39;10.07;;;4.60;;
74503;SDS011;62988;55.776;37.544;2023-06-14T04:41:04;12.55;;;4.50;;
74503;SDS011;62988;55.776;37.544;2023-06-14T04:43:29;11.13;;;3.67;;
74503;SDS011;62988;55.776;37.544;2023-06-14T04:45:55;10.10;;;4.20;;
74503;SDS011;62988;55.776;37.544;2023-06-14T04:48:21;12.18;;;4.97;;
74503;SDS011;62988;55.776;37.544;2023-06-14T04:50:47;11.60;;;5.22;;
74503;SDS011;62988;55.776;37.544;2023-06-14T04:53:13;11.20;;;4.68;;
74503;SDS011;62988;55.776;37.544;2023-06-14T04:55:38;8.50;;;4.00;;
74503;SDS011;62988;55.776;37.544;2023-06-14T04:58:03;11.27;;;3.97;;
74503;SDS011;62988;55.776;37.544;2023-06-14T05:00:29;7.93;;;3.33;;
74503;SDS011;62988;55.776;37.544;2023-06-14T05:02:55;12.95;;;6.03;;
74503;SDS011;62988;55.776;37.544;2023-06-14T05:05:22;13.52;;;4.00;;
74503;SDS011;62988;55.776;37.544;2023-06-14T05:07:47;10.60;;;3.58;;
74503;SDS011;62988;55.776;37.544;2023-06-14T05:10:13;11.82;;;4.20;;
74503;SDS011;62988;55.776;37.544;2023-06-14T05:12:38;13.15;;;3.97;;
74503;SDS011;62988;55.776;37.544;2023-06-14T05:15:03;9.17;;;3.70;;
74503;SDS011;62988;55.776;37.544;2023-06-14T05:17:29;14.40;;;3.72;;
74503;SDS011;62988;55.776;37.544;2023-06-14T05:19:55;18.40;;;4.47;;
74503;SDS011;62988;55.776;37.544;2023-06-14T05:22:21;8.23;;;3.58;;
74503;SDS011;62988;55.776;37.544;2023-06-14T05:24:46;7.82;;;3.35;;
74503;SDS011;62988;55.776;37.544;2023-06-14T05:27:13;5.93;;;3.22;;
74503;SDS011;62988;55.776;37.544;2023-06-14T05:29:38;8.13;;;3.67;;
74503;SDS011;62988;55.776;37.544;2023-06-14T05:32:04;9.17;;;3.57;;
74503;SDS011;62988;55.776;37.544;2023-06-14T05:34:30;10.10;;;3.60;;
74503;SDS011;62988;55.776;37.544;2023-06-14T05:36:55;8.82;;;3.33;;
74503;SDS011;62988;55.776;37.544;2023-06-14T05:39:20;9.27;;;3.27;;
74503;SDS011;62988;55.776;37.544;2023-06-14T05:41:46;12.27;;;3.20;;
74503;SDS011;62988;55.776;37.544;2023-06-14T05:44:11;12.70;;;3.43;;
74503;SDS011;62988;55.776;37.544;2023-06-14T05:46:36;9.00;;;2.90;;
74503;SDS011;62988;55.776;37.544;2023-06-14T05:49:02;12.82;;;2.90;;
74503;SDS011;62988;55.776;37.544;2023-06-14T05:51:27;11.07;;;3.77;;
74503;SDS011;62988;55.776;37.544;2023-06-14T05:53:52;8.13;;;3.08;;
74503;SDS011;62988;55.776;37.544;2023-06-14T05:56:18;7.50;;;2.70;;
74503;SDS011;62988;55.776;37.544;2023-06-14T05:58:44;6.20;;;2.63;;
74503;SDS011;62988;55.776;37.544;2023-06-14T06:01:10;6.00;;;2.47;;
74503;SDS011;62988;55.776;37.544;2023-06-14T06:03:35;8.00;;;2.47;;
74503;SDS011;62988;55.776;37.544;2023-06-14T06:06:01;6.40;;;2.28;;
74503;SDS011;62988;55.776;37.544;2023-06-14T06:08:26;5.97;;;2.50;;
74503;SDS011;62988;55.776;37.544;2023-06-14T06:10:51;6.15;;;2.38;;
74503;SDS011;62988;55.776;37.544;2023-06-14T06:13:17;6.67;;;2.43;;
74503;SDS011;62988;55.776;37.544;2023-06-14T06:15:42;6.67;;;2.27;;
74503;SDS011;62988;55.776;37.544;2023-06-14T06:18:07;7.43;;;2.03;;
74503;SDS011;62988;55.776;37.544;2023-06-14T06:20:33;8.50;;;2.40;;
74503;SDS011;62988;55.776;37.544;2023-06-14T06:22:58;7.95;;;2.25;;
74503;SDS011;62988;55.776;37.544;2023-06-14T06:25:24;6.25;;;2.17;;
74503;SDS011;62988;55.776;37.544;2023-06-14T06:27:51;6.55;;;2.00;;
74503;SDS011;62988;55.776;37.544;2023-06-14T06:30:16;5.68;;;1.83;;
74503;SDS011;62988;55.776;37.544;2023-06-14T06:32:42;9.40;;;1.90;;
74503;SDS011;62988;55.776;37.544;2023-06-14T06:35:07;4.10;;;2.00;;
74503;SDS011;62988;55.776;37.544;2023-06-14T06:37:34;4.72;;;2.00;;
74503;SDS011;62988;55.776;37.544;2023-06-14T06:39:59;4.55;;;1.90;;
74503;SDS011;62988;55.776;37.544;2023-06-14T06:42:25;6.75;;;2.13;;
74503;SDS011;62988;55.776;37.544;2023-06-14T06:44:50;6.70;;;2.00;;
74503;SDS011;62988;55.776;37.544;2023-06-14T06:47:15;7.70;;;1.83;;
74503;SDS011;62988;55.776;37.544;2023-06-14T06:49:41;5.03;;;2.10;;
74503;SDS011;62988;55.776;37.544;2023-06-14T06:52:06;4.97;;;1.73;;
74503;SDS011;62988;55.776;37.544;2023-06-14T06:54:32;4.00;;;1.92;;
74503;SDS011;62988;55.776;37.544;2023-06-14T06:56:58;4.45;;;2.33;;
74503;SDS011;62988;55.776;37.544;2023-06-14T06:59:24;4.40;;;1.63;;
74503;SDS011;62988;55.776;37.544;2023-06-14T07:01:49;3.78;;;1.88;;
74503;SDS011;62988;55.776;37.544;2023-06-14T07:04:15;5.05;;;2.13;;
74503;SDS011;62988;55.776;37.544;2023-06-14T07:06:41;5.22;;;2.40;;
74503;SDS011;62988;55.776;37.544;2023-06-14T07:09:06;3.05;;;1.50;;
74503;SDS011;62988;55.776;37.544;2023-06-14T07:11:37;9.88;;;2.15;;
74503;SDS011;62988;55.776;37.544;2023-06-14T07:14:02;6.03;;;1.87;;
74503;SDS011;62988;55.776;37.544;2023-06-14T07:16:27;3.80;;;1.70;;
74503;SDS011;62988;55.776;37.544;2023-06-14T07:18:53;4.97;;;1.80;;
74503;SDS011;62988;55.776;37.544;2023-06-14T07:21:18;4.93;;;2.00;;
74503;SDS011;62988;55.776;37.544;2023-06-14T07:23:43;7.40;;;2.17;;
74503;SDS011;62988;55.776;37.544;2023-06-14T07:26:09;9.00;;;3.03;;
74503;SDS011;62988;55.776;37.544;2023-06-14T07:28:34;5.55;;;2.05;;
74503;SDS011;62988;55.776;37.544;2023-06-14T07:30:59;10.55;;;2.85;;
74503;SDS011;62988;55.776;37.544;2023-06-14T07:33:25;5.07;;;2.40;;
74503;SDS011;62988;55.776;37.544;2023-06-14T07:35:50;5.17;;;2.13;;
74503;SDS011;62988;55.776;37.544;2023-06-14T07:38:17;3.78;;;2.05;;
74503;SDS011;62988;55.776;37.544;2023-06-14T07:40:42;8.60;;;2.23;;
74503;SDS011;62988;55.776;37.544;2023-06-14T07:43:08;4.33;;;2.30;;
74503;SDS011;62988;55.776;37.544;2023-06-14T07:45:33;4.87;;;1.83;;
74503;SDS011;62988;55.776;37.544;2023-06-14T07:47:58;5.47;;;1.90;;
74503;SDS011;62988;55.776;37.544;2023-06-14T07:50:24;6.45;;;2.72;;
74503;SDS011;62988;55.776;37.544;2023-06-14T07:52:51;10.38;;;2.60;;
74503;SDS011;62988;55.776;37.544;2023-06-14T07:55:16;8.27;;;2.03;;
74503;SDS011;62988;55.776;37.544;2023-06-14T07:57:41;6.85;;;3.65;;
74503;SDS011;62988;55.776;37.544;2023-06-14T08:00:08;8.50;;;2.35;;
74503;SDS011;62988;55.776;37.544;2023-06-14T08:02:35;8.48;;;2.13;;
74503;SDS011;62988;55.776;37.544;2023-06-14T08:05:00;4.87;;;2.40;;
74503;SDS011;62988;55.776;37.544;2023-06-14T08:07:26;5.28;;;2.25;;
74503;SDS011;62988;55.776;37.544;2023-06-14T08:09:51;9.55;;;2.67;;
74503;SDS011;62988;55.776;37.544;2023-06-14T08:12:17;4.88;;;2.20;;
74503;SDS011;62988;55.776;37.544;2023-06-14T08:14:42;7.90;;;2.30;;
74503;SDS011;62988;55.776;37.544;2023-06-14T08:17:07;9.82;;;2.20;;
74503;SDS011;62988;55.776;37.544;2023-06-14T08:19:33;5.13;;;2.08;;
74503;SDS011;62988;55.776;37.544;2023-06-14T08:21:58;9.90;;;2.63;;
74503;SDS011;62988;55.776;37.544;2023-06-14T08:24:25;4.82;;;2.20;;
74503;SDS011;62988;55.776;37.544;2023-06-14T08:26:52;4.18;;;2.45;;
74503;SDS011;62988;55.776;37.544;2023-06-14T08:29:17;5.97;;;2.10;;
74503;SDS011;62988;55.776;37.544;2023-06-14T08:31:43;6.00;;;2.37;;
74503;SDS011;62988;55.776;37.544;2023-06-14T08:34:08;7.23;;;2.67;;
74503;SDS011;62988;55.776;37.544;2023-06-14T08:36:34;31.98;;;2.95;;
74503;SDS011;62988;55.776;37.544;2023-06-14T08:39:00;5.65;;;2.30;;
74503;SDS011;62988;55.776;37.544;2023-06-14T08:41:25;5.17;;;2.30;;
74503;SDS011;62988;55.776;37.544;2023-06-14T08:43:52;5.72;;;3.00;;
74503;SDS011;62988;55.776;37.544;2023-06-14T08:46:18;12.27;;;3.17;;
74503;SDS011;62988;55.776;37.544;2023-06-14T08:48:50;6.80;;;2.70;;
74503;SDS011;62988;55.776;37.544;2023-06-14T08:51:19;7.90;;;2.92;;
74503;SDS011;62988;55.776;37.544;2023-06-14T08:53:46;5.55;;;2.53;;
74503;SDS011;62988;55.776;37.544;2023-06-14T08:56:16;4.18;;;2.60;;
74503;SDS011;62988;55.776;37.544;2023-06-14T08:58:44;6.18;;;2.40;;
74503;SDS011;62988;55.776;37.544;2023-06-14T09:01:10;5.45;;;2.72;;
74503;SDS011;62988;55.776;37.544;2023-06-14T09:03:39;4.68;;;2.92;;
74503;SDS011;62988;55.776;37.544;2023-06-14T09:06:06;7.15;;;2.58;;
74503;SDS011;62988;55.776;37.544;2023-06-14T09:08:33;7.55;;;2.50;;
74503;SDS011;62988;55.776;37.544;2023-06-14T09:11:00;8.75;;;3.58;;
74503;SDS011;62988;55.776;37.544;2023-06-14T09:13:26;10.23;;;2.97;;
74503;SDS011;62988;55.776;37.544;2023-06-14T09:15:52;5.03;;;2.50;;
74503;SDS011;62988;55.776;37.544;2023-06-14T09:18:17;7.53;;;2.22;;
74503;SDS011;62988;55.776;37.544;2023-06-14T09:20:43;11.40;;;2.72;;
74503;SDS011;62988;55.776;37.544;2023-06-14T09:23:08;4.07;;;2.70;;
74503;SDS011;62988;55.776;37.544;2023-06-14T09:25:42;11.55;;;2.72;;
74503;SDS011;62988;55.776;37.544;2023-06-14T09:30:34;5.70;;;2.60;;
74503;SDS011;62988;55.776;37.544;2023-06-14T09:33:00;8.68;;;2.50;;
74503;SDS011;62988;55.776;37.544;2023-06-14T09:35:25;6.37;;;2.83;;
74503;SDS011;62988;55.776;37.544;2023-06-14T09:37:53;4.18;;;2.35;;
74503;SDS011;62988;55.776;37.544;2023-06-14T09:40:20;10.20;;;2.53;;
74503;SDS011;62988;55.776;37.544;2023-06-14T09:42:46;4.53;;;2.45;;
74503;SDS011;62988;55.776;37.544;2023-06-14T09:45:12;6.57;;;2.45;;
74503;SDS011;62988;55.776;37.544;2023-06-14T09:47:38;4.10;;;2.30;;
74503;SDS011;62988;55.776;37.544;2023-06-14T09:50:04;8.00;;;2.58;;
74503;SDS011;62988;55.776;37.544;2023-06-14T09:52:30;9.40;;;2.38;;
74503;SDS011;62988;55.776;37.544;2023-06-14T09:54:56;5.22;;;2.25;;
74503;SDS011;62988;55.776;37.544;2023-06-14T09:57:24;5.93;;;2.90;;
74503;SDS011;62988;55.776;37.544;2023-06-14T09:59:52;5.28;;;2.28;;
74503;SDS011;62988;55.776;37.544;2023-06-14T10:02:31;4.40;;;2.80;;
74503;SDS011;62988;55.776;37.544;2023-06-14T10:05:05;8.85;;;4.90;;
74503;SDS011;62988;55.776;37.544;2023-06-14T10:07:32;5.88;;;2.75;;
74503;SDS011;62988;55.776;37.544;2023-06-14T10:10:00;6.68;;;2.97;;
74503;SDS011;62988;55.776;37.544;2023-06-14T10:12:25;6.03;;;3.03;;
74503;SDS011;62988;55.776;37.544;2023-06-14T10:14:51;6.55;;;2.40;;
74503;SDS011;62988;55.776;37.544;2023-06-14T10:19:53;4.03;;;2.15;;
74503;SDS011;62988;55.776;37.544;2023-06-14T10:22:22;6.45;;;2.72;;
74503;SDS011;62988;55.776;37.544;2023-06-14T10:24:50;5.65;;;2.97;;
74503;SDS011;62988;55.776;37.544;2023-06-14T10:27:15;6.90;;;4.18;;
74503;SDS011;62988;55.776;37.544;2023-06-14T10:32:17;4.30;;;2.55;;
74503;SDS011;62988;55.776;37.544;2023-06-14T10:34:44;4.05;;;2.78;;
74503;SDS011;62988;55.776;37.544;2023-06-14T10:37:12;3.50;;;2.30;;
74503;SDS011;62988;55.776;37.544;2023-06-14T10:39:41;7.20;;;3.05;;
74503;SDS011;62988;55.776;37.544;2023-06-14T10:42:07;4.72;;;2.38;;
74503;SDS011;62988;55.776;37.544;2023-06-14T10:44:39;7.88;;;3.00;;
74503;SDS011;62988;55.776;37.544;2023-06-14T10:47:23;3.55;;;2.58;;
74503;SDS011;62988;55.776;37.544;2023-06-14T10:49:52;9.82;;;2.60;;
74503;SDS011;62988;55.776;37.544;2023-06-14T10:52:20;4.88;;;2.35;;
74503;SDS011;62988;55.776;37.544;2023-06-14T10:57:27;6.22;;;2.40;;
74503;SDS011;62988;55.776;37.544;2023-06-14T10:59:52;8.13;;;5.15;;
74503;SDS011;62988;55.776;37.544;2023-06-14T11:04:47;5.23;;;2.80;;
74503;SDS011;62988;55.776;37.544;2023-06-14T11:12:25;5.05;;;2.90;;
74503;SDS011;62988;55.776;37.544;2023-06-14T11:14:52;4.15;;;2.47;;
74503;SDS011;62988;55.776;37.544;2023-06-14T11:17:17;5.03;;;2.70;;
74503;SDS011;62988;55.776;37.544;2023-06-14T11:19:43;6.68;;;2.78;;
74503;SDS011;62988;55.776;37.544;2023-06-14T11:22:09;7.53;;;4.78;;
74503;SDS011;62988;55.776;37.544;2023-06-14T11:24:34;4.03;;;2.57;;
74503;SDS011;62988;55.776;37.544;2023-06-14T11:26:59;6.57;;;2.80;;
74503;SDS011;62988;55.776;37.544;2023-06-14T11:29:25;7.03;;;3.03;;
74503;SDS011;62988;55.776;37.544;2023-06-14T11:31:50;4.20;;;2.30;;
74503;SDS011;62988;55.776;37.544;2023-06-14T11:34:16;3.50;;;2.73;;
74503;SDS011;62988;55.776;37.544;2023-06-14T11:36:42;10.40;;;2.90;;
74503;SDS011;62988;55.776;37.544;2023-06-14T11:39:08;5.30;;;2.90;;
74503;SDS011;62988;55.776;37.544;2023-06-14T11:41:37;7.90;;;3.58;;
74503;SDS011;62988;55.776;37.544;2023-06-14T11:44:02;4.70;;;2.67;;
74503;SDS011;62988;55.776;37.544;2023-06-14T11:46:28;12.02;;;3.30;;
74503;SDS011;62988;55.776;37.544;2023-06-14T11:48:53;7.35;;;3.42;;
74503;SDS011;62988;55.776;37.544;2023-06-14T11:51:19;7.90;;;2.97;;
74503;SDS011;62988;55.776;37.544;2023-06-14T11:53:45;9.82;;;3.28;;
74503;SDS011;62988;55.776;37.544;2023-06-14T11:56:10;6.07;;;3.40;;
74503;SDS011;62988;55.776;37.544;2023-06-14T11:58:36;4.90;;;2.80;;
74503;SDS011;62988;55.776;37.544;2023-06-14T12:01:03;5.25;;;3.13;;
74503;SDS011;62988;55.776;37.544;2023-06-14T12:03:28;5.72;;;3.55;;
74503;SDS011;62988;55.776;37.544;2023-06-14T12:06:06;6.10;;;3.40;;
74503;SDS011;62988;55.776;37.544;2023-06-14T12:11:07;5.38;;;2.60;;
74503;SDS011;62988;55.776;37.544;2023-06-14T12:13:37;6.32;;;2.85;;
74503;SDS011;62988;55.776;37.544;2023-06-14T12:16:02;7.35;;;3.05;;
74503;SDS011;62988;55.776;37.544;2023-06-14T12:18:31;6.45;;;2.60;;
74503;SDS011;62988;55.776;37.544;2023-06-14T12:20:58;7.45;;;2.58;;
74503;SDS011;62988;55.776;37.544;2023-06-14T12:23:28;6.18;;;2.97;;
74503;SDS011;62988;55.776;37.544;2023-06-14T12:26:03;7.50;;;3.67;;
74503;SDS011;62988;55.776;37.544;2023-06-14T12:28:31;8.32;;;3.70;;
74503;SDS011;62988;55.776;37.544;2023-06-14T12:30:56;3.97;;;2.58;;
74503;SDS011;62988;55.776;37.544;2023-06-14T12:33:24;8.82;;;4.72;;
74503;SDS011;62988;55.776;37.544;2023-06-14T12:35:49;6.10;;;2.67;;
74503;SDS011;62988;55.776;37.544;2023-06-14T12:38:15;8.45;;;2.80;;
74503;SDS011;62988;55.776;37.544;2023-06-14T12:40:41;8.32;;;2.80;;
74503;SDS011;62988;55.776;37.544;2023-06-14T12:43:07;4.57;;;2.17;;
74503;SDS011;62988;55.776;37.544;2023-06-14T12:45:32;9.43;;;4.15;;
74503;SDS011;62988;55.776;37.544;2023-06-14T12:47:58;7.97;;;4.73;;
74503;SDS011;62988;55.776;37.544;2023-06-14T12:50:23;13.57;;;7.40;;
74503;SDS011;62988;55.776;37.544;2023-06-14T12:52:48;4.50;;;2.70;;
74503;SDS011;62988;55.776;37.544;2023-06-14T12:55:14;8.88;;;4.13;;
74503;SDS011;62988;55.776;37.544;2023-06-14T12:57:39;5.75;;;2.47;;
74503;SDS011;62988;55.776;37.544;2023-06-14T13:00:05;7.93;;;4.07;;
74503;SDS011;62988;55.776;37.544;2023-06-14T13:02:32;5.40;;;2.55;;
74503;SDS011;62988;55.776;37.544;2023-06-14T13:04:57;6.78;;;2.72;;
74503;SDS011;62988;55.776;37.544;2023-06-14T13:07:24;10.70;;;3.88;;
74503;SDS011;62988;55.776;37.544;2023-06-14T13:09:49;7.63;;;2.75;;
74503;SDS011;62988;55.776;37.544;2023-06-14T13:12:14;4.78;;;3.03;;
74503;SDS011;62988;55.776;37.544;2023-06-14T13:14:40;5.45;;;2.50;;
74503;SDS011;62988;55.776;37.544;2023-06-14T13:17:07;4.32;;;2.97;;
74503;SDS011;62988;55.776;37.544;2023-06-14T13:19:32;6.60;;;2.72;;
74503;SDS011;62988;55.776;37.544;2023-06-14T13:21:58;5.47;;;2.80;;
74503;SDS011;62988;55.776;37.544;2023-06-14T13:24:23;7.53;;;3.00;;
74503;SDS011;62988;55.776;37.544;2023-06-14T13:26:48;7.27;;;2.57;;
74503;SDS011;62988;55.776;37.544;2023-06-14T13:29:14;6.85;;;4.07;;
74503;SDS011;62988;55.776;37.544;2023-06-14T13:31:39;7.03;;;2.50;;
74503;SDS011;62988;55.776;37.544;2023-06-14T13:34:05;5.55;;;2.22;;
74503;SDS011;62988;55.776;37.544;2023-06-14T13:36:30;4.53;;;2.58;;
74503;SDS011;62988;55.776;37.544;2023-06-14T13:38:56;5.72;;;2.47;;
74503;SDS011;62988;55.776;37.544;2023-06-14T13:41:23;12.27;;;3.33;;
74503;SDS011;62988;55.776;37.544;2023-06-14T13:43:49;7.47;;;3.67;;
74503;SDS011;62988;55.776;37.544;2023-06-14T13:46:14;6.57;;;2.43;;
74503;SDS011;62988;55.776;37.544;2023-06-14T13:48:39;7.17;;;2.90;;
74503;SDS011;62988;55.776;37.544;2023-06-14T13:51:05;5.13;;;2.47;;
74503;SDS011;62988;55.776;37.544;2023-06-14T13:53:30;5.40;;;2.57;;
74503;SDS011;62988;55.776;37.544;2023-06-14T13:55:56;6.05;;;2.22;;
74503;SDS011;62988;55.776;37.544;2023-06-14T13:58:21;10.25;;;4.32;;
74503;SDS011;62988;55.776;37.544;2023-06-14T14:00:48;7.78;;;4.00;;
74503;SDS011;62988;55.776;37.544;2023-06-14T14:03:13;7.53;;;2.40;;
74503;SDS011;62988;55.776;37.544;2023-06-14T14:05:39;6.60;;;3.20;;
74503;SDS011;62988;55.776;37.544;2023-06-14T14:08:04;7.20;;;3.77;;
74503;SDS011;62988;55.776;37.544;2023-06-14T14:10:29;6.07;;;2.35;;
74503;SDS011;62988;55.776;37.544;2023-06-14T14:12:55;4.88;;;2.70;;
74503;SDS011;62988;55.776;37.544;2023-06-14T14:15:21;9.02;;;3.50;;
74503;SDS011;62988;55.776;37.544;2023-06-14T14:17:47;5.68;;;3.38;;
74503;SDS011;62988;55.776;37.544;2023-06-14T14:20:13;6.28;;;2.50;;
74503;SDS011;62988;55.776;37.544;2023-06-14T14:22:41;7.70;;;2.35;;
74503;SDS011;62988;55.776;37.544;2023-06-14T14:25:06;7.63;;;3.45;;
74503;SDS011;62988;55.776;37.544;2023-06-14T14:27:32;6.72;;;3.00;;
74503;SDS011;62988;55.776;37.544;2023-06-14T14:29:57;8.10;;;3.17;;
74503;SDS011;62988;55.776;37.544;2023-06-14T14:32:22;6.53;;;2.43;;
74503;SDS011;62988;55.776;37.544;2023-06-14T14:34:48;5.43;;;2.20;;
74503;SDS011;62988;55.776;37.544;2023-06-14T14:37:13;5.73;;;2.53;;
74503;SDS011;62988;55.776;37.544;2023-06-14T14:39:40;7.68;;;2.70;;
74503;SDS011;62988;55.776;37.544;2023-06-14T14:42:05;5.22;;;2.30;;
74503;SDS011;62988;55.776;37.544;2023-06-14T14:44:32;10.52;;;4.25;;
74503;SDS011;62988;55.776;37.544;2023-06-14T14:46:58;6.97;;;2.10;;